createdAt,value
2016-02-02T00:00:43.328Z,55.53
2016-02-02T00:01:43.408Z,55.91
2016-02-02T00:02:43.444Z,55.91
2016-02-02T00:03:43.494Z,55.82
2016-02-02T00:04:43.559Z,55.91
2016-02-02T00:05:43.609Z,55.82
2016-02-02T00:06:43.659Z,55.73
2016-02-02T00:07:43.724Z,55.82
2016-02-02T00:08:43.773Z,55.63
2016-02-02T00:09:43.839Z,55.63
2016-02-02T00:10:43.873Z,55.53
2016-02-02T00:11:43.956Z,55.73
2016-02-02T00:12:43.990Z,55.82
2016-02-02T00:13:44.039Z,55.91
2016-02-02T00:14:44.106Z,55.91
2016-02-02T00:15:44.155Z,56.11
2016-02-02T00:16:44.205Z,55.73
2016-02-02T00:17:44.255Z,55.24
2016-02-02T00:18:44.335Z,55.82
2016-02-02T00:19:44.385Z,55.73
2016-02-02T00:20:44.438Z,55.91
2016-02-02T00:21:44.488Z,55.63
2016-02-02T00:22:44.555Z,55.63
2016-02-02T00:23:44.605Z,55.91
2016-02-02T00:24:44.654Z,55.91
2016-02-02T00:25:44.705Z,55.73
2016-02-02T00:26:44.754Z,55.53
2016-02-02T00:27:44.819Z,55.91
2016-02-02T00:28:44.870Z,56.01
2016-02-02T00:29:44.936Z,55.91
2016-02-02T00:30:44.985Z,55.73
2016-02-02T00:31:45.034Z,55.63
2016-02-02T00:32:45.085Z,55.91
2016-02-02T00:33:45.136Z,55.91
2016-02-02T00:34:45.201Z,55.63
2016-02-02T00:35:45.266Z,55.63
2016-02-02T00:36:45.317Z,55.73
2016-02-02T00:37:45.367Z,55.63
2016-02-02T00:38:45.416Z,55.91
2016-02-02T00:39:45.465Z,55.63
2016-02-02T00:40:45.530Z,55.82
2016-02-02T00:41:45.598Z,55.73
2016-02-02T00:42:45.646Z,55.82
2016-02-02T00:43:45.696Z,55.91
2016-02-02T00:44:45.746Z,55.91
2016-02-02T00:45:45.812Z,55.73
2016-02-02T00:46:45.861Z,55.63
2016-02-02T00:47:45.910Z,55.63
2016-02-02T00:48:45.961Z,55.73
2016-02-02T00:49:46.027Z,55.63
2016-02-02T00:50:46.076Z,56.01
2016-02-02T00:51:46.125Z,55.82
2016-02-02T00:52:46.191Z,55.73
2016-02-02T00:53:46.242Z,56.11
2016-02-02T00:54:46.306Z,56.11
2016-02-02T00:55:46.200Z,55.91
2016-02-02T00:56:46.405Z,56.08
2016-02-02T00:57:46.456Z,56.18
2016-02-02T00:58:46.521Z,56.18
2016-02-02T00:59:46.572Z,56.08
2016-02-02T01:00:46.627Z,55.99
2016-02-02T01:01:46.693Z,56.27
2016-02-02T01:02:46.742Z,56.18
2016-02-02T01:03:46.791Z,56.11
2016-02-02T01:04:46.857Z,55.99
2016-02-02T01:05:46.907Z,55.99
2016-02-02T01:06:46.956Z,56.08
2016-02-02T01:07:47.007Z,56.18
2016-02-02T01:08:47.072Z,55.89
2016-02-02T01:09:47.123Z,55.89
2016-02-02T01:10:47.172Z,55.89
2016-02-02T01:11:47.237Z,55.89
2016-02-02T01:12:47.287Z,56.08
2016-02-02T01:13:47.336Z,55.79
2016-02-02T01:14:47.417Z,56.27
2016-02-02T01:15:47.467Z,56.37
2016-02-02T01:16:47.532Z,56.37
2016-02-02T01:17:47.566Z,55.99
2016-02-02T01:18:47.616Z,56.27
2016-02-02T01:19:47.665Z,56.37
2016-02-02T01:20:47.731Z,56.27
2016-02-02T01:21:47.781Z,56.27
2016-02-02T01:22:47.830Z,55.79
2016-02-02T01:23:47.895Z,56.46
2016-02-02T01:24:47.945Z,56.66
2016-02-02T01:25:47.995Z,56.56
2016-02-02T01:26:48.059Z,56.56
2016-02-02T01:27:48.109Z,56.56
2016-02-02T01:28:48.152Z,56.56
2016-02-02T01:29:48.218Z,56.66
2016-02-02T01:30:48.285Z,56.56
2016-02-02T01:31:48.334Z,56.76
2016-02-02T01:32:48.385Z,56.66
2016-02-02T01:33:48.434Z,56.76
2016-02-02T01:34:48.485Z,56.66
2016-02-02T01:35:48.550Z,57.14
2016-02-02T01:36:48.601Z,56.76
2016-02-02T01:37:48.650Z,57.04
2016-02-02T01:38:48.714Z,57.14
2016-02-02T01:39:48.766Z,56.76
2016-02-02T01:40:48.816Z,56.56
2016-02-02T01:41:48.882Z,56.56
2016-02-02T01:42:48.930Z,56.46
2016-02-02T01:43:48.996Z,56.37
2016-02-02T01:44:49.047Z,56.95
2016-02-02T01:45:49.097Z,56.46
2016-02-02T01:46:49.161Z,56.46
2016-02-02T01:47:49.194Z,57.04
2016-02-02T01:48:49.264Z,56.76
2016-02-02T01:49:49.313Z,57.04
2016-02-02T01:50:49.363Z,56.76
2016-02-02T01:51:49.414Z,56.46
2016-02-02T01:52:49.481Z,57.04
2016-02-02T01:53:49.545Z,56.85
2016-02-02T01:54:49.594Z,56.95
2016-02-02T01:55:49.647Z,56.76
2016-02-02T01:56:49.697Z,56.95
2016-02-02T01:57:49.762Z,56.85
2016-02-02T01:58:49.811Z,56.76
2016-02-02T01:59:49.862Z,56.85
2016-02-02T02:00:49.913Z,56.76
2016-02-02T02:01:49.978Z,56.85
2016-02-02T02:02:50.027Z,56.76
2016-02-02T02:03:50.077Z,56.85
2016-02-02T02:04:50.129Z,56.85
2016-02-02T02:05:50.194Z,57.23
2016-02-02T02:06:50.243Z,56.76
2016-02-02T02:07:50.293Z,56.76
2016-02-02T02:08:50.343Z,56.56
2016-02-02T02:09:50.409Z,56.76
2016-02-02T02:10:50.473Z,57.23
2016-02-02T02:11:50.523Z,57.14
2016-02-02T02:12:50.573Z,57.14
2016-02-02T02:13:50.623Z,57.04
2016-02-02T02:14:50.688Z,57.14
2016-02-02T02:15:50.754Z,57.04
2016-02-02T02:16:50.795Z,57.04
2016-02-02T02:17:50.860Z,56.66
2016-02-02T02:18:50.894Z,56.66
2016-02-02T02:19:50.958Z,56.66
2016-02-02T02:20:51.008Z,56.66
2016-02-02T02:21:51.059Z,56.56
2016-02-02T02:22:51.124Z,56.66
2016-02-02T02:23:51.173Z,56.56
2016-02-02T02:24:51.224Z,56.56
2016-02-02T02:25:51.277Z,56.66
2016-02-02T02:26:51.357Z,56.66
2016-02-02T02:27:51.391Z,56.76
2016-02-02T02:28:51.457Z,56.76
2016-02-02T02:29:51.509Z,56.56
2016-02-02T02:30:51.542Z,57.04
2016-02-02T02:31:51.607Z,56.56
2016-02-02T02:32:51.673Z,56.76
2016-02-02T02:33:51.723Z,56.76
2016-02-02T02:34:51.787Z,56.85
2016-02-02T02:35:51.837Z,56.85
2016-02-02T02:36:51.887Z,57.04
2016-02-02T02:37:51.952Z,57.04
2016-02-02T02:38:52.001Z,56.95
2016-02-02T02:39:52.050Z,56.95
2016-02-02T02:40:52.116Z,56.85
2016-02-02T02:41:52.166Z,56.95
2016-02-02T02:42:52.045Z,56.76
2016-02-02T02:43:52.265Z,56.85
2016-02-02T02:44:52.332Z,57.14
2016-02-02T02:45:52.381Z,56.95
2016-02-02T02:46:52.433Z,57.23
2016-02-02T02:47:52.482Z,57.14
2016-02-02T02:48:52.548Z,57.43
2016-02-02T02:49:52.598Z,57.43
2016-02-02T02:50:52.647Z,57.52
2016-02-02T02:51:52.713Z,57.43
2016-02-02T02:52:52.763Z,57.33
2016-02-02T02:53:52.813Z,57.52
2016-02-02T02:54:52.862Z,58.2
2016-02-02T02:55:52.927Z,57.52
2016-02-02T02:56:52.980Z,56.76
2016-02-02T02:57:53.030Z,57.14
2016-02-02T02:58:53.081Z,57.62
2016-02-02T02:59:53.149Z,57.33
2016-02-02T03:00:53.199Z,57.14
2016-02-02T03:01:53.265Z,57.23
2016-02-02T03:02:53.298Z,57.43
2016-02-02T03:03:53.364Z,57.33
2016-02-02T03:04:53.401Z,57.52
2016-02-02T03:05:53.468Z,57.23
2016-02-02T03:06:53.518Z,57.52
2016-02-02T03:07:53.568Z,57.33
2016-02-02T03:08:53.632Z,57.33
2016-02-02T03:09:53.682Z,57.33
2016-02-02T03:10:53.748Z,57.43
2016-02-02T03:11:53.798Z,57.52
2016-02-02T03:12:53.848Z,57.43
2016-02-02T03:13:53.900Z,57.71
2016-02-02T03:14:53.968Z,57.23
2016-02-02T03:15:54.016Z,58
2016-02-02T03:16:54.066Z,57.23
2016-02-02T03:17:54.132Z,57.33
2016-02-02T03:18:54.182Z,57.9
2016-02-02T03:19:54.231Z,57.9
2016-02-02T03:20:54.281Z,57.81
2016-02-02T03:21:54.330Z,57.9
2016-02-02T03:22:54.397Z,57.81
2016-02-02T03:23:54.446Z,57.33
2016-02-02T03:24:54.499Z,57.81
2016-02-02T03:25:54.565Z,57.9
2016-02-02T03:26:54.614Z,57.71
2016-02-02T03:27:54.666Z,57.23
2016-02-02T03:28:54.717Z,57.81
2016-02-02T03:29:54.768Z,57.04
2016-02-02T03:30:54.840Z,57.71
2016-02-02T03:31:54.889Z,57.81
2016-02-02T03:32:54.939Z,57.81
2016-02-02T03:33:54.991Z,57.81
2016-02-02T03:34:55.041Z,57.71
2016-02-02T03:35:55.106Z,57.81
2016-02-02T03:36:55.171Z,57.81
2016-02-02T03:37:55.221Z,57.71
2016-02-02T03:38:55.866Z,57.71
2016-02-02T03:39:55.321Z,57.52
2016-02-02T03:40:55.385Z,58.29
2016-02-02T03:41:55.451Z,57.71
2016-02-02T03:42:55.484Z,58.29
2016-02-02T03:43:55.537Z,58.1
2016-02-02T03:44:55.561Z,58.1
2016-02-02T03:45:55.614Z,58
2016-02-02T03:46:55.669Z,58
2016-02-02T03:47:55.708Z,58
2016-02-02T03:48:55.754Z,57.81
2016-02-02T03:49:55.802Z,57.9
2016-02-02T03:50:55.848Z,57.81
2016-02-02T03:51:55.909Z,57.78
2016-02-02T03:52:55.955Z,57.71
2016-02-02T03:53:56.003Z,57.78
2016-02-02T03:54:56.068Z,58.77
2016-02-02T03:55:56.131Z,57.62
2016-02-02T03:56:56.163Z,57.81
2016-02-02T03:57:56.228Z,57.78
2016-02-02T03:58:56.278Z,57.9
2016-02-02T03:59:56.342Z,58.07
2016-02-02T04:00:56.390Z,58.2
2016-02-02T04:01:56.439Z,58.07
2016-02-02T04:02:56.489Z,57.71
2016-02-02T04:03:56.542Z,57.78
2016-02-02T04:04:56.607Z,58.1
2016-02-02T04:05:56.657Z,58.1
2016-02-02T04:06:56.708Z,57.9
2016-02-02T04:07:56.757Z,58
2016-02-02T04:08:56.822Z,58.1
2016-02-02T04:09:56.887Z,58.36
2016-02-02T04:10:56.922Z,58.36
2016-02-02T04:11:56.988Z,58.45
2016-02-02T04:12:57.036Z,58.36
2016-02-02T04:13:57.102Z,58.45
2016-02-02T04:14:57.152Z,58.1
2016-02-02T04:15:57.203Z,57.78
2016-02-02T04:16:57.264Z,58.48
2016-02-02T04:17:57.298Z,58.26
2016-02-02T04:18:57.364Z,58.36
2016-02-02T04:19:57.430Z,58.55
2016-02-02T04:20:57.464Z,58.64
2016-02-02T04:21:57.528Z,58.45
2016-02-02T04:22:57.578Z,58.48
2016-02-02T04:23:57.629Z,58.58
2016-02-02T04:24:57.694Z,57.97
2016-02-02T04:25:57.743Z,58.07
2016-02-02T04:26:57.794Z,58.2
2016-02-02T04:27:57.860Z,58.1
2016-02-02T04:28:57.956Z,58.45
2016-02-02T04:29:57.959Z,58.39
2016-02-02T04:30:58.025Z,58.48
2016-02-02T04:31:58.060Z,58.1
2016-02-02T04:32:58.140Z,58.17
2016-02-02T04:33:58.174Z,58.07
2016-02-02T04:34:58.912Z,57.9
2016-02-02T04:35:59.164Z,57.68
2016-02-02T04:36:59.793Z,58.58
2016-02-02T04:37:59.140Z,58.2
2016-02-02T04:38:59.126Z,58.96
2016-02-02T04:39:59.191Z,58.58
2016-02-02T04:40:59.241Z,58.67
2016-02-02T04:41:59.995Z,58.2
2016-02-02T04:42:59.857Z,58.1
2016-02-02T04:43:59.328Z,58.55
2016-02-02T04:44:58.785Z,58.26
2016-02-02T04:45:58.833Z,58.39
2016-02-02T04:46:58.899Z,58.29
2016-02-02T04:47:59.745Z,58.26
2016-02-02T04:49:00.608Z,59.06
2016-02-02T04:49:59.766Z,58.39
2016-02-02T04:50:59.488Z,58.55
2016-02-02T04:51:59.944Z,58.45
2016-02-02T04:52:59.916Z,58.17
2016-02-02T04:53:59.263Z,58.58
2016-02-02T04:54:59.327Z,59.03
2016-02-02T04:55:59.377Z,58.36
2016-02-02T04:56:59.443Z,58.36
2016-02-02T04:57:59.493Z,58.36
2016-02-02T04:58:59.542Z,58.36
2016-02-02T04:59:59.592Z,59.06
2016-02-02T05:00:59.644Z,58.94
2016-02-02T05:01:59.708Z,58.36
2016-02-02T05:02:59.774Z,58.45
2016-02-02T05:03:59.807Z,58.36
2016-02-02T05:04:59.874Z,58.39
2016-02-02T05:05:59.923Z,58.36
2016-02-02T05:06:59.973Z,58.29
2016-02-02T05:08:00.039Z,58.84
2016-02-02T05:09:00.089Z,58.64
2016-02-02T05:10:00.138Z,59.03
2016-02-02T05:11:00.188Z,58.74
2016-02-02T05:12:00.256Z,58.55
2016-02-02T05:13:00.305Z,58.36
2016-02-02T05:14:00.359Z,58.36
2016-02-02T05:15:00.423Z,58.36
2016-02-02T05:16:00.473Z,58.96
2016-02-02T05:17:00.539Z,58.55
2016-02-02T05:18:00.588Z,58.64
2016-02-02T05:19:00.622Z,58.55
2016-02-02T05:20:00.686Z,58.45
2016-02-02T05:21:00.752Z,58.45
2016-02-02T05:22:00.803Z,58.74
2016-02-02T05:23:00.852Z,58.55
2016-02-02T05:24:00.901Z,58.45
2016-02-02T05:25:00.951Z,58.45
2016-02-02T05:26:01.017Z,58.55
2016-02-02T05:27:01.066Z,58.74
2016-02-02T05:28:01.132Z,58.74
2016-02-02T05:29:01.166Z,58.26
2016-02-02T05:30:01.238Z,58.36
2016-02-02T05:31:01.302Z,58.36
2016-02-02T05:32:01.336Z,58.36
2016-02-02T05:33:01.401Z,58.36
2016-02-02T05:34:01.452Z,58.55
2016-02-02T05:35:01.501Z,57.97
2016-02-02T05:36:01.550Z,58.94
2016-02-02T05:37:01.616Z,58.45
2016-02-02T05:38:01.681Z,58.45
2016-02-02T05:39:01.715Z,59.03
2016-02-02T05:40:01.777Z,58.55
2016-02-02T05:41:01.826Z,58.64
2016-02-02T05:42:01.892Z,58.45
2016-02-02T05:43:01.926Z,58.64
2016-02-02T05:44:01.980Z,58.07
2016-02-02T05:45:02.061Z,58.55
2016-02-02T05:46:02.110Z,58.36
2016-02-02T05:47:02.160Z,59.22
2016-02-02T05:48:02.225Z,58.36
2016-02-02T05:49:02.274Z,58.36
2016-02-02T05:50:02.325Z,58.74
2016-02-02T05:51:02.374Z,58.45
2016-02-02T05:52:02.439Z,58.45
2016-02-02T05:53:02.489Z,58.36
2016-02-02T05:54:02.540Z,58.45
2016-02-02T05:55:02.433Z,58.36
2016-02-02T05:56:02.639Z,58.55
2016-02-02T05:57:02.719Z,58.55
2016-02-02T05:58:02.753Z,58.84
2016-02-02T05:59:02.819Z,58.45
2016-02-02T06:00:02.867Z,58.45
2016-02-02T06:01:02.913Z,58.64
2016-02-02T06:02:02.981Z,58.36
2016-02-02T06:03:03.032Z,58.36
2016-02-02T06:04:03.096Z,58.55
2016-02-02T06:05:03.130Z,58.84
2016-02-02T06:06:03.179Z,58.45
2016-02-02T06:07:03.246Z,58.55
2016-02-02T06:08:03.295Z,58.45
2016-02-02T06:09:03.391Z,58.84
2016-02-02T06:10:03.410Z,59.03
2016-02-02T06:11:03.460Z,58.74
2016-02-02T06:12:03.541Z,58.84
2016-02-02T06:13:03.559Z,58.84
2016-02-02T06:14:03.624Z,58.94
2016-02-02T06:15:03.693Z,59.03
2016-02-02T06:16:03.773Z,58.64
2016-02-02T06:17:03.776Z,58.94
2016-02-02T06:18:03.841Z,59.32
2016-02-02T06:19:03.908Z,58.64
2016-02-02T06:20:03.943Z,58.55
2016-02-02T06:21:04.007Z,58.94
2016-02-02T06:22:04.057Z,58.94
2016-02-02T06:23:04.123Z,59.03
2016-02-02T06:24:04.173Z,59.03
2016-02-02T06:25:04.222Z,58.74
2016-02-02T06:26:04.275Z,58.74
2016-02-02T06:27:04.325Z,58.55
2016-02-02T06:28:04.391Z,58.74
2016-02-02T06:29:04.440Z,59.03
2016-02-02T06:30:04.505Z,58.84
2016-02-02T06:31:04.579Z,58.94
2016-02-02T06:32:04.615Z,58.55
2016-02-02T06:33:04.648Z,58.64
2016-02-02T06:34:04.713Z,59.03
2016-02-02T06:35:04.762Z,58.64
2016-02-02T06:36:04.813Z,58.74
2016-02-02T06:37:04.879Z,58.84
2016-02-02T06:38:04.928Z,58.45
2016-02-02T06:39:04.977Z,58.36
2016-02-02T06:40:05.027Z,58.74
2016-02-02T06:41:05.093Z,58.64
2016-02-02T06:42:05.142Z,59.03
2016-02-02T06:43:05.191Z,58.55
2016-02-02T06:44:05.257Z,58.36
2016-02-02T06:45:05.322Z,58.64
2016-02-02T06:46:05.356Z,58.74
2016-02-02T06:47:05.406Z,58.36
2016-02-02T06:48:05.470Z,58.36
2016-02-02T06:49:05.537Z,58.36
2016-02-02T06:50:05.585Z,54.71
2016-02-02T06:51:05.619Z,54.42
2016-02-02T06:52:05.685Z,54.8
2016-02-02T06:53:05.736Z,55.86
2016-02-02T06:54:05.800Z,55.57
2016-02-02T06:55:05.834Z,55.67
2016-02-02T06:56:05.899Z,55.86
2016-02-02T06:57:05.950Z,56.15
2016-02-02T06:58:06.017Z,56.34
2016-02-02T06:59:06.065Z,57.68
2016-02-02T07:00:06.115Z,57.88
2016-02-02T07:01:06.168Z,57.97
2016-02-02T07:02:06.233Z,57.97
2016-02-02T07:03:06.282Z,56.34
2016-02-02T07:04:06.331Z,56.44
2016-02-02T07:05:06.397Z,56.63
2016-02-02T07:06:06.447Z,58.26
2016-02-02T07:07:06.497Z,58.64
2016-02-02T07:08:06.546Z,58.55
2016-02-02T07:09:06.613Z,58.55
2016-02-02T07:10:06.662Z,58.36
2016-02-02T07:11:06.712Z,58.64
2016-02-02T07:12:06.776Z,58.74
2016-02-02T07:13:06.831Z,58.62
2016-02-02T07:14:06.881Z,58.45
2016-02-02T07:15:06.930Z,57.65
2016-02-02T07:16:06.980Z,55.83
2016-02-02T07:17:07.044Z,54.68
2016-02-02T07:18:07.096Z,53.91
2016-02-02T07:19:07.160Z,54.01
2016-02-02T07:20:07.210Z,53.63
2016-02-02T07:21:07.248Z,53.91
2016-02-02T07:22:07.299Z,53.82
2016-02-02T07:23:07.379Z,54.68
2016-02-02T07:24:07.429Z,56.98
2016-02-02T07:25:07.478Z,57.28
2016-02-02T07:26:07.574Z,57.75
2016-02-02T07:27:07.574Z,57.75
2016-02-02T07:28:07.640Z,58.33
2016-02-02T07:29:07.689Z,58.14
2016-02-02T07:30:07.739Z,58.23
2016-02-02T07:31:07.807Z,57.46
2016-02-02T07:32:07.948Z,58.04
2016-02-02T07:33:10.714Z,57.95
2016-02-02T07:34:16.640Z,57.85
2016-02-02T07:35:08.431Z,58.52
2016-02-02T07:36:08.059Z,57.85
2016-02-02T07:37:08.202Z,58.42
2016-02-02T07:38:08.173Z,58.04
2016-02-02T07:39:08.223Z,58.42
2016-02-02T07:40:08.341Z,58.14
2016-02-02T07:41:08.329Z,58.23
2016-02-02T07:42:08.394Z,57.75
2016-02-02T07:43:08.460Z,57.95
2016-02-02T07:44:08.494Z,57.85
2016-02-02T07:45:08.543Z,58.52
2016-02-02T07:46:08.608Z,58.42
2016-02-02T07:47:08.657Z,58.33
2016-02-02T07:48:08.709Z,58.14
2016-02-02T07:49:08.759Z,58.52
2016-02-02T07:50:08.824Z,58.62
2016-02-02T07:51:08.877Z,58.42
2016-02-02T07:52:08.926Z,58.33
2016-02-02T07:53:08.976Z,58.52
2016-02-02T07:54:09.041Z,58.33
2016-02-02T07:55:09.080Z,58.52
2016-02-02T07:56:09.144Z,58.52
2016-02-02T07:57:09.194Z,58.81
2016-02-02T07:58:09.244Z,58.52
2016-02-02T07:59:09.310Z,58.42
2016-02-02T08:00:09.345Z,58.14
2016-02-02T08:01:09.410Z,58.62
2016-02-02T08:02:09.476Z,58.52
2016-02-02T08:03:09.510Z,58.33
2016-02-02T08:04:09.416Z,58.33
2016-02-02T08:05:09.654Z,58.33
2016-02-02T08:06:09.671Z,58.33
2016-02-02T08:07:09.724Z,58.33
2016-02-02T08:08:09.789Z,58.33
2016-02-02T08:09:09.837Z,58.33
2016-02-02T08:10:09.903Z,58.23
2016-02-02T08:11:09.937Z,58.14
2016-02-02T08:12:10.003Z,58.23
2016-02-02T08:13:10.052Z,58.14
2016-02-02T08:14:10.109Z,58.23
2016-02-02T08:15:10.163Z,58.33
2016-02-02T08:16:10.214Z,58.23
2016-02-02T08:17:10.264Z,58.42
2016-02-02T08:18:10.314Z,58.33
2016-02-02T08:19:10.378Z,58.14
2016-02-02T08:20:10.428Z,58.33
2016-02-02T08:21:10.481Z,58.91
2016-02-02T08:22:10.546Z,58.42
2016-02-02T08:23:10.595Z,58.52
2016-02-02T08:24:10.661Z,58.52
2016-02-02T08:25:10.695Z,58.52
2016-02-02T08:26:10.760Z,58.42
2016-02-02T08:27:10.810Z,58.33
2016-02-02T08:28:10.862Z,58.33
2016-02-02T08:29:10.911Z,58.52
2016-02-02T08:30:10.965Z,58.33
2016-02-02T08:31:11.015Z,57.85
2016-02-02T08:32:11.079Z,57.75
2016-02-02T08:33:11.129Z,58.33
2016-02-02T08:34:11.179Z,58.52
2016-02-02T08:35:11.229Z,58.52
2016-02-02T08:36:11.309Z,58.33
2016-02-02T08:37:11.343Z,58.33
2016-02-02T08:38:11.409Z,58.39
2016-02-02T08:39:11.443Z,57.95
2016-02-02T08:40:11.507Z,58.04
2016-02-02T08:41:11.557Z,58.01
2016-02-02T08:42:11.608Z,58.42
2016-02-02T08:43:11.657Z,58.81
2016-02-02T08:44:11.722Z,58.42
2016-02-02T08:45:11.772Z,58.52
2016-02-02T08:46:11.821Z,59
2016-02-02T08:47:11.715Z,58.42
2016-02-02T08:48:11.940Z,58.14
2016-02-02T08:49:11.988Z,58.62
2016-02-02T08:50:12.038Z,58.52
2016-02-02T08:51:12.106Z,58.59
2016-02-02T08:52:12.156Z,58.81
2016-02-02T08:53:12.204Z,58.71
2016-02-02T08:54:12.253Z,58.52
2016-02-02T08:55:12.320Z,58.33
2016-02-02T08:56:12.357Z,58.33
2016-02-02T08:57:12.423Z,58.81
2016-02-02T08:58:12.463Z,58.78
2016-02-02T08:59:12.528Z,58.52
2016-02-02T09:00:12.578Z,58.81
2016-02-02T09:01:12.643Z,58.62
2016-02-02T09:02:12.692Z,58.78
2016-02-02T09:03:12.728Z,58.62
2016-02-02T09:04:12.792Z,58.62
2016-02-02T09:05:12.843Z,58.69
2016-02-02T09:06:12.907Z,58.52
2016-02-02T09:07:12.957Z,58.62
2016-02-02T09:08:13.010Z,58.14
2016-02-02T09:09:13.060Z,58.33
2016-02-02T09:10:13.110Z,58.14
2016-02-02T09:11:13.160Z,58.71
2016-02-02T09:12:13.224Z,58.71
2016-02-02T09:13:13.276Z,58.33
2016-02-02T09:14:13.327Z,57.82
2016-02-02T09:15:13.391Z,58.3
2016-02-02T09:16:13.426Z,58.71
2016-02-02T09:17:13.492Z,58.71
2016-02-02T09:18:13.541Z,58.78
2016-02-02T09:19:13.591Z,59
2016-02-02T09:20:13.647Z,58.49
2016-02-02T09:21:13.695Z,59
2016-02-02T09:22:13.761Z,58.71
2016-02-02T09:23:13.794Z,59.06
2016-02-02T09:24:13.861Z,58.59
2016-02-02T09:25:13.941Z,58.78
2016-02-02T09:26:13.959Z,58.69
2016-02-02T09:27:14.028Z,58.78
2016-02-02T09:28:14.077Z,58.59
2016-02-02T09:29:14.127Z,58.97
2016-02-02T09:30:14.208Z,58.33
2016-02-02T09:31:14.241Z,58.69
2016-02-02T09:32:14.291Z,58.69
2016-02-02T09:33:14.355Z,58.59
2016-02-02T09:34:14.391Z,58.97
2016-02-02T09:35:14.441Z,58.97
2016-02-02T09:36:14.506Z,58.69
2016-02-02T09:37:14.556Z,58.87
2016-02-02T09:38:14.621Z,58.49
2016-02-02T09:39:14.671Z,58.97
2016-02-02T09:40:14.720Z,58.87
2016-02-02T09:41:14.770Z,58.87
2016-02-02T09:42:14.820Z,59.26
2016-02-02T09:43:14.870Z,58.59
2016-02-02T09:44:14.950Z,58.78
2016-02-02T09:45:14.984Z,58.87
2016-02-02T09:46:15.034Z,59.06
2016-02-02T09:47:15.098Z,59.06
2016-02-02T09:48:15.164Z,58.87
2016-02-02T09:49:15.197Z,58.87
2016-02-02T09:50:15.266Z,59.45
2016-02-02T09:51:15.315Z,59.45
2016-02-02T09:52:15.364Z,58.87
2016-02-02T09:53:15.413Z,59.06
2016-02-02T09:54:15.463Z,58.97
2016-02-02T09:55:15.513Z,58.87
2016-02-02T09:56:15.583Z,59.55
2016-02-02T09:57:15.632Z,59.64
2016-02-02T09:58:15.681Z,59.64
2016-02-02T09:59:15.748Z,59.45
2016-02-02T10:00:15.798Z,59.45
2016-02-02T10:01:15.846Z,59.45
2016-02-02T10:02:15.900Z,59.55
2016-02-02T10:03:15.950Z,59.45
2016-02-02T10:04:16.000Z,59.74
2016-02-02T10:05:16.065Z,59.45
2016-02-02T10:06:16.146Z,60.12
2016-02-02T10:07:16.164Z,59.36
2016-02-02T10:08:16.070Z,59.55
2016-02-02T10:09:16.265Z,59.45
2016-02-02T10:10:16.329Z,59.55
2016-02-02T10:11:16.379Z,59.64
2016-02-02T10:12:16.428Z,58.97
2016-02-02T10:13:16.479Z,58.3
2016-02-02T10:14:16.544Z,58.97
2016-02-02T10:15:16.592Z,59.36
2016-02-02T10:16:16.642Z,59.45
2016-02-02T10:17:16.692Z,59.55
2016-02-02T10:18:16.758Z,59.06
2016-02-02T10:19:16.807Z,59.16
2016-02-02T10:20:16.856Z,59.36
2016-02-02T10:21:16.905Z,59.55
2016-02-02T10:22:16.971Z,59.06
2016-02-02T10:23:17.036Z,58.78
2016-02-02T10:24:17.133Z,58.87
2016-02-02T10:25:17.135Z,59.06
2016-02-02T10:26:17.189Z,59.06
2016-02-02T10:27:17.223Z,58.78
2016-02-02T10:28:17.289Z,58.78
2016-02-02T10:29:17.337Z,58.87
2016-02-02T10:30:17.387Z,58.78
2016-02-02T10:31:17.453Z,58.78
2016-02-02T10:32:17.506Z,58.69
2016-02-02T10:33:17.555Z,58.69
2016-02-02T10:34:17.619Z,58.59
2016-02-02T10:35:17.665Z,58.49
2016-02-02T10:36:17.715Z,58.59
2016-02-02T10:37:17.765Z,58.59
2016-02-02T10:38:17.829Z,58.59
2016-02-02T10:39:17.881Z,58.97
2016-02-02T10:40:17.930Z,58.59
2016-02-02T10:41:17.980Z,58.69
2016-02-02T10:42:18.044Z,58.97
2016-02-02T10:43:18.094Z,58.78
2016-02-02T10:44:18.144Z,58.69
2016-02-02T10:45:18.194Z,58.49
2016-02-02T10:46:18.244Z,58.59
2016-02-02T10:47:18.308Z,58.97
2016-02-02T10:48:18.374Z,58.78
2016-02-02T10:49:18.409Z,58.69
2016-02-02T10:50:18.458Z,59.16
2016-02-02T10:51:18.522Z,59.06
2016-02-02T10:52:18.572Z,58.97
2016-02-02T10:53:18.622Z,59.16
2016-02-02T10:54:18.688Z,58.59
2016-02-02T10:55:18.737Z,59.06
2016-02-02T10:56:18.786Z,58.59
2016-02-02T10:57:18.840Z,58.78
2016-02-02T10:58:18.892Z,58.69
2016-02-02T10:59:18.957Z,58.87
2016-02-02T11:00:18.991Z,58.69
2016-02-02T11:01:19.056Z,59.36
2016-02-02T11:02:19.105Z,58.49
2016-02-02T11:03:19.171Z,58.49
2016-02-02T11:04:19.205Z,58.69
2016-02-02T11:05:19.269Z,58.78
2016-02-02T11:06:19.319Z,59.16
2016-02-02T11:07:19.384Z,58.39
2016-02-02T11:08:19.419Z,58.87
2016-02-02T11:09:19.484Z,58.49
2016-02-02T11:10:19.538Z,58.97
2016-02-02T11:11:19.587Z,58.49
2016-02-02T11:12:19.637Z,58.39
2016-02-02T11:13:19.703Z,58.69
2016-02-02T11:14:19.737Z,58.97
2016-02-02T11:15:19.802Z,58.69
2016-02-02T11:16:19.851Z,58.69
2016-02-02T11:17:19.903Z,58.97
2016-02-02T11:18:19.983Z,58.69
2016-02-02T11:19:20.017Z,58.69
2016-02-02T11:20:20.066Z,58.87
2016-02-02T11:21:20.116Z,58.69
2016-02-02T11:22:20.185Z,58.59
2016-02-02T11:23:20.234Z,58.69
2016-02-02T11:24:20.283Z,58.69
2016-02-02T11:25:20.333Z,58.49
2016-02-02T11:26:20.400Z,58.3
2016-02-02T11:27:20.434Z,58.69
2016-02-02T11:28:20.490Z,58.69
2016-02-02T11:29:20.554Z,58.49
2016-02-02T11:30:20.621Z,58.97
2016-02-02T11:31:20.654Z,58.78
2016-02-02T11:32:20.719Z,58.59
2016-02-02T11:33:20.786Z,58.78
2016-02-02T11:34:20.820Z,59.16
2016-02-02T11:35:20.869Z,59.16
2016-02-02T11:36:20.935Z,59.26
2016-02-02T11:37:21.000Z,58.69
2016-02-02T11:38:21.049Z,58.59
2016-02-02T11:39:21.130Z,58.87
2016-02-02T11:40:21.166Z,58.78
2016-02-02T11:41:21.200Z,58.69
2016-02-02T11:42:21.250Z,59.45
2016-02-02T11:43:21.315Z,58.78
2016-02-02T11:44:21.365Z,58.97
2016-02-02T11:45:21.418Z,59.26
2016-02-02T11:46:21.452Z,58.78
2016-02-02T11:47:21.533Z,58.3
2016-02-02T11:48:21.568Z,58.3
2016-02-02T11:49:21.618Z,58.78
2016-02-02T11:50:21.682Z,58.3
2016-02-02T11:51:21.732Z,58.11
2016-02-02T11:52:21.781Z,58.39
2016-02-02T11:53:21.832Z,58.49
2016-02-02T11:54:21.881Z,58.01
2016-02-02T11:55:21.945Z,58.01
2016-02-02T11:56:21.995Z,58.01
2016-02-02T11:57:22.045Z,57.92
2016-02-02T11:58:22.097Z,57.92
2016-02-02T11:59:22.148Z,57.82
2016-02-02T12:00:22.212Z,57.63
2016-02-02T12:01:22.262Z,57.92
2016-02-02T12:02:22.342Z,57.92
2016-02-02T12:03:22.377Z,57.82
2016-02-02T12:04:22.430Z,58.87
2016-02-02T12:05:22.479Z,59.06
2016-02-02T12:06:22.530Z,59.36
2016-02-02T12:07:22.580Z,59.06
2016-02-02T12:08:22.645Z,58.87
2016-02-02T12:09:22.694Z,58.97
2016-02-02T12:10:22.744Z,59.26
2016-02-02T12:11:22.795Z,59.83
2016-02-02T12:12:22.875Z,59.45
2016-02-02T12:13:22.909Z,59.45
2016-02-02T12:14:22.958Z,59.36
2016-02-02T12:15:23.024Z,59.06
2016-02-02T12:16:23.059Z,59.06
2016-02-02T12:17:23.124Z,59.16
2016-02-02T12:18:23.173Z,59.06
2016-02-02T12:19:23.222Z,58.97
2016-02-02T12:20:23.271Z,59.06
2016-02-02T12:21:23.338Z,59.45
2016-02-02T12:22:23.387Z,59.74
2016-02-02T12:23:23.437Z,59.06
2016-02-02T12:24:23.486Z,58.97
2016-02-02T12:25:23.552Z,59.16
2016-02-02T12:26:23.617Z,59.06
2016-02-02T12:27:23.652Z,59.36
2016-02-02T12:28:23.700Z,59.93
2016-02-02T12:29:23.762Z,59.36
2016-02-02T12:30:23.827Z,59.45
2016-02-02T12:31:23.861Z,59.45
2016-02-02T12:32:23.925Z,59.45
2016-02-02T12:33:23.974Z,59.64
2016-02-02T12:34:24.025Z,59.64
2016-02-02T12:35:24.091Z,59.64
2016-02-02T12:36:24.139Z,59.55
2016-02-02T12:37:24.188Z,59.74
2016-02-02T12:38:24.238Z,59.64
2016-02-02T12:39:24.304Z,58.78
2016-02-02T12:40:24.354Z,58.59
2016-02-02T12:41:24.403Z,58.87
2016-02-02T12:42:24.470Z,58.87
2016-02-02T12:43:24.503Z,59.64
2016-02-02T12:44:24.554Z,59.83
2016-02-02T12:45:24.619Z,60.12
2016-02-02T12:46:24.668Z,59.45
2016-02-02T12:47:24.717Z,59.36
2016-02-02T12:48:24.783Z,59.36
2016-02-02T12:49:24.826Z,59.36
2016-02-02T12:50:24.864Z,59.83
2016-02-02T12:51:24.903Z,59.36
2016-02-02T12:52:24.958Z,59.64
2016-02-02T12:53:24.998Z,59.58
2016-02-02T12:54:25.042Z,59.74
2016-02-02T12:55:25.087Z,59.67